sensor_id;sensor_type;location;lat;lon;timestamp;temperature;humidity
14924;DHT22;7554;43.600;1.480;2023-01-01T00:01:40;12.10;1.00
14924;DHT22;7554;43.600;1.480;2023-01-01T00:04:12;12.20;1.00
14924;DHT22;7554;43.600;1.480;2023-01-01T00:06:39;12.10;1.00
14924;DHT22;7554;43.600;1.480;2023-01-01T00:09:08;12.20;1.00
14924;DHT22;7554;43.600;1.480;2023-01-01T00:11:53;12.20;1.00
14924;DHT22;7554;43.600;1.480;2023-01-01T00:14:20;12.20;1.00
14924;DHT22;7554;43.600;1.480;2023-01-01T00:16:48;12.20;1.00
14924;DHT22;7554;43.600;1.480;2023-01-01T00:19:16;12.30;1.00
14924;DHT22;7554;43.600;1.480;2023-01-01T00:21:43;12.10;1.00
14924;DHT22;7554;43.600;1.480;2023-01-01T00:24:12;12.00;1.00
14924;DHT22;7554;43.600;1.480;2023-01-01T00:26:40;12.20;1.00
14924;DHT22;7554;43.600;1.480;2023-01-01T00:29:07;12.10;1.00
14924;DHT22;7554;43.600;1.480;2023-01-01T00:31:35;12.00;1.00
14924;DHT22;7554;43.600;1.480;2023-01-01T00:34:02;12.00;1.00
14924;DHT22;7554;43.600;1.480;2023-01-01T00:36:30;12.00;1.00
14924;DHT22;7554;43.600;1.480;2023-01-01T00:38:57;12.00;1.00
14924;DHT22;7554;43.600;1.480;2023-01-01T00:41:26;12.00;1.00
14924;DHT22;7554;43.600;1.480;2023-01-01T00:43:54;12.10;1.00
14924;DHT22;7554;43.600;1.480;2023-01-01T00:46:21;12.00;1.00
14924;DHT22;7554;43.600;1.480;2023-01-01T00:48:49;12.00;1.00
14924;DHT22;7554;43.600;1.480;2023-01-01T00:51:16;12.00;1.00
14924;DHT22;7554;43.600;1.480;2023-01-01T00:53:43;12.00;1.00
14924;DHT22;7554;43.600;1.480;2023-01-01T00:56:11;12.10;1.00
14924;DHT22;7554;43.600;1.480;2023-01-01T00:58:40;12.00;1.00
14924;DHT22;7554;43.600;1.480;2023-01-01T01:01:07;12.10;1.00
14924;DHT22;7554;43.600;1.480;2023-01-01T01:03:36;12.00;1.00
14924;DHT22;7554;43.600;1.480;2023-01-01T01:06:08;12.20;1.00
14924;DHT22;7554;43.600;1.480;2023-01-01T01:08:38;12.10;1.00
14924;DHT22;7554;43.600;1.480;2023-01-01T01:11:07;12.10;1.00
14924;DHT22;7554;43.600;1.480;2023-01-01T01:13:36;12.10;1.00
14924;DHT22;7554;43.600;1.480;2023-01-01T01:16:09;12.10;1.00
14924;DHT22;7554;43.600;1.480;2023-01-01T01:18:37;12.00;1.00
14924;DHT22;7554;43.600;1.480;2023-01-01T01:21:05;12.00;1.00
14924;DHT22;7554;43.600;1.480;2023-01-01T01:23:32;12.00;1.00
14924;DHT22;7554;43.600;1.480;2023-01-01T01:26:07;11.90;1.00
14924;DHT22;7554;43.600;1.480;2023-01-01T01:28:35;11.80;1.00
14924;DHT22;7554;43.600;1.480;2023-01-01T01:31:02;11.90;1.00
14924;DHT22;7554;43.600;1.480;2023-01-01T01:33:32;11.90;1.00
14924;DHT22;7554;43.600;1.480;2023-01-01T01:35:59;11.80;1.00
14924;DHT22;7554;43.600;1.480;2023-01-01T01:38:27;11.70;1.00
14924;DHT22;7554;43.600;1.480;2023-01-01T01:40:54;11.80;1.00
14924;DHT22;7554;43.600;1.480;2023-01-01T01:43:24;11.70;1.00
14924;DHT22;7554;43.600;1.480;2023-01-01T01:45:53;11.60;1.00
14924;DHT22;7554;43.600;1.480;2023-01-01T01:48:22;11.60;1.00
14924;DHT22;7554;43.600;1.480;2023-01-01T01:50:52;11.70;1.00
14924;DHT22;7554;43.600;1.480;2023-01-01T01:53:23;11.70;1.00
14924;DHT22;7554;43.600;1.480;2023-01-01T01:55:54;11.80;1.00
14924;DHT22;7554;43.600;1.480;2023-01-01T01:58:22;11.80;1.00
14924;DHT22;7554;43.600;1.480;2023-01-01T02:00:51;11.70;1.00
14924;DHT22;7554;43.600;1.480;2023-01-01T02:03:22;11.80;1.00
14924;DHT22;7554;43.600;1.480;2023-01-01T02:05:53;11.90;1.00
14924;DHT22;7554;43.600;1.480;2023-01-01T02:08:20;11.80;1.00
14924;DHT22;7554;43.600;1.480;2023-01-01T02:10:49;11.80;1.00
14924;DHT22;7554;43.600;1.480;2023-01-01T02:13:16;11.70;1.00
14924;DHT22;7554;43.600;1.480;2023-01-01T02:15:51;11.80;1.00
14924;DHT22;7554;43.600;1.480;2023-01-01T02:18:23;11.80;1.00
14924;DHT22;7554;43.600;1.480;2023-01-01T02:20:56;11.80;1.00
14924;DHT22;7554;43.600;1.480;2023-01-01T02:23:47;11.80;1.00
14924;DHT22;7554;43.600;1.480;2023-01-01T02:26:38;11.80;1.00
14924;DHT22;7554;43.600;1.480;2023-01-01T02:29:19;11.70;1.00
14924;DHT22;7554;43.600;1.480;2023-01-01T02:31:53;11.80;1.00
14924;DHT22;7554;43.600;1.480;2023-01-01T02:34:27;11.70;1.00
14924;DHT22;7554;43.600;1.480;2023-01-01T02:36:57;11.80;1.00
14924;DHT22;7554;43.600;1.480;2023-01-01T02:39:28;11.80;1.00
14924;DHT22;7554;43.600;1.480;2023-01-01T02:41:58;11.70;1.00
14924;DHT22;7554;43.600;1.480;2023-01-01T02:44:30;11.70;1.00
14924;DHT22;7554;43.600;1.480;2023-01-01T02:47:09;11.70;1.00
14924;DHT22;7554;43.600;1.480;2023-01-01T02:49:40;11.70;1.00
14924;DHT22;7554;43.600;1.480;2023-01-01T02:52:21;11.70;1.00
14924;DHT22;7554;43.600;1.480;2023-01-01T02:54:58;11.70;1.00
14924;DHT22;7554;43.600;1.480;2023-01-01T02:57:32;11.60;1.00
14924;DHT22;7554;43.600;1.480;2023-01-01T03:00:07;11.70;1.00
14924;DHT22;7554;43.600;1.480;2023-01-01T03:03:13;11.60;1.00
14924;DHT22;7554;43.600;1.480;2023-01-01T03:05:47;11.60;1.00
14924;DHT22;7554;43.600;1.480;2023-01-01T03:08:36;11.80;1.00
14924;DHT22;7554;43.600;1.480;2023-01-01T03:11:09;11.70;1.00
14924;DHT22;7554;43.600;1.480;2023-01-01T03:13:41;11.60;1.00
14924;DHT22;7554;43.600;1.480;2023-01-01T03:16:22;11.70;1.00
14924;DHT22;7554;43.600;1.480;2023-01-01T03:18:57;11.90;1.00
14924;DHT22;7554;43.600;1.480;2023-01-01T03:21:45;11.70;1.00
14924;DHT22;7554;43.600;1.480;2023-01-01T03:24:19;11.90;1.00
14924;DHT22;7554;43.600;1.480;2023-01-01T03:26:52;11.70;1.00
14924;DHT22;7554;43.600;1.480;2023-01-01T03:29:21;11.80;1.00
14924;DHT22;7554;43.600;1.480;2023-01-01T03:31:53;11.80;1.00
14924;DHT22;7554;43.600;1.480;2023-01-01T03:34:25;11.80;1.00
14924;DHT22;7554;43.600;1.480;2023-01-01T03:36:57;11.90;1.00
14924;DHT22;7554;43.600;1.480;2023-01-01T03:39:29;11.90;1.00
14924;DHT22;7554;43.600;1.480;2023-01-01T03:42:08;12.10;1.00
14924;DHT22;7554;43.600;1.480;2023-01-01T03:44:41;12.00;1.00
14924;DHT22;7554;43.600;1.480;2023-01-01T03:47:12;12.10;1.00
14924;DHT22;7554;43.600;1.480;2023-01-01T03:49:40;12.00;1.00
14924;DHT22;7554;43.600;1.480;2023-01-01T03:52:24;11.90;1.00
14924;DHT22;7554;43.600;1.480;2023-01-01T03:54:58;11.90;1.00
14924;DHT22;7554;43.600;1.480;2023-01-01T03:57:34;12.00;1.00
14924;DHT22;7554;43.600;1.480;2023-01-01T04:00:07;12.00;1.00
14924;DHT22;7554;43.600;1.480;2023-01-01T04:02:39;12.00;1.00
14924;DHT22;7554;43.600;1.480;2023-01-01T04:05:08;11.90;1.00
14924;DHT22;7554;43.600;1.480;2023-01-01T04:07:37;11.90;1.00
14924;DHT22;7554;43.600;1.480;2023-01-01T04:10:06;11.80;1.00
14924;DHT22;7554;43.600;1.480;2023-01-01T04:12:47;11.90;1.00
14924;DHT22;7554;43.600;1.480;2023-01-01T04:15:15;11.80;1.00
14924;DHT22;7554;43.600;1.480;2023-01-01T04:17:45;11.70;1.00
14924;DHT22;7554;43.600;1.480;2023-01-01T04:20:13;11.70;1.00
14924;DHT22;7554;43.600;1.480;2023-01-01T04:22:41;11.80;1.00
14924;DHT22;7554;43.600;1.480;2023-01-01T04:25:09;11.90;1.00
14924;DHT22;7554;43.600;1.480;2023-01-01T04:27:37;11.90;1.00
14924;DHT22;7554;43.600;1.480;2023-01-01T04:30:07;11.90;1.00
14924;DHT22;7554;43.600;1.480;2023-01-01T04:32:35;11.80;1.00
14924;DHT22;7554;43.600;1.480;2023-01-01T04:35:05;11.80;1.00
14924;DHT22;7554;43.600;1.480;2023-01-01T04:37:34;11.80;1.00
14924;DHT22;7554;43.600;1.480;2023-01-01T04:40:02;11.80;1.00
14924;DHT22;7554;43.600;1.480;2023-01-01T04:42:30;11.70;1.00
14924;DHT22;7554;43.600;1.480;2023-01-01T04:44:58;11.80;1.00
14924;DHT22;7554;43.600;1.480;2023-01-01T04:47:25;11.80;1.00
14924;DHT22;7554;43.600;1.480;2023-01-01T04:49:53;11.70;1.00
14924;DHT22;7554;43.600;1.480;2023-01-01T04:52:22;11.70;1.00
14924;DHT22;7554;43.600;1.480;2023-01-01T04:54:49;11.70;1.00
14924;DHT22;7554;43.600;1.480;2023-01-01T04:57:17;11.80;1.00
14924;DHT22;7554;43.600;1.480;2023-01-01T04:59:44;11.80;1.00
14924;DHT22;7554;43.600;1.480;2023-01-01T05:02:12;11.80;1.00
14924;DHT22;7554;43.600;1.480;2023-01-01T05:04:39;11.70;1.00
14924;DHT22;7554;43.600;1.480;2023-01-01T05:07:07;11.70;1.00
14924;DHT22;7554;43.600;1.480;2023-01-01T05:09:36;11.70;1.00
14924;DHT22;7554;43.600;1.480;2023-01-01T05:12:03;11.60;1.00
14924;DHT22;7554;43.600;1.480;2023-01-01T05:14:31;11.60;1.00
14924;DHT22;7554;43.600;1.480;2023-01-01T05:16:59;11.60;1.00
14924;DHT22;7554;43.600;1.480;2023-01-01T05:19:26;11.60;1.00
14924;DHT22;7554;43.600;1.480;2023-01-01T05:21:54;11.60;1.00
14924;DHT22;7554;43.600;1.480;2023-01-01T05:24:21;11.60;1.00
14924;DHT22;7554;43.600;1.480;2023-01-01T05:26:50;11.60;1.00
14924;DHT22;7554;43.600;1.480;2023-01-01T05:29:18;11.60;1.00
14924;DHT22;7554;43.600;1.480;2023-01-01T05:31:47;11.70;1.00
14924;DHT22;7554;43.600;1.480;2023-01-01T05:34:14;11.60;1.00
14924;DHT22;7554;43.600;1.480;2023-01-01T05:36:42;11.50;1.00
14924;DHT22;7554;43.600;1.480;2023-01-01T05:39:10;11.60;1.00
14924;DHT22;7554;43.600;1.480;2023-01-01T05:41:39;11.60;1.00
14924;DHT22;7554;43.600;1.480;2023-01-01T05:44:08;11.50;1.00
14924;DHT22;7554;43.600;1.480;2023-01-01T05:46:36;11.50;1.00
14924;DHT22;7554;43.600;1.480;2023-01-01T05:49:04;11.60;1.00
14924;DHT22;7554;43.600;1.480;2023-01-01T05:51:32;11.70;1.00
14924;DHT22;7554;43.600;1.480;2023-01-01T05:53:59;11.80;1.00
14924;DHT22;7554;43.600;1.480;2023-01-01T05:56:27;11.70;1.00
14924;DHT22;7554;43.600;1.480;2023-01-01T05:58:55;11.90;1.00
14924;DHT22;7554;43.600;1.480;2023-01-01T06:01:25;11.80;1.00
14924;DHT22;7554;43.600;1.480;2023-01-01T06:03:53;11.90;1.00
14924;DHT22;7554;43.600;1.480;2023-01-01T06:06:22;11.80;1.00
14924;DHT22;7554;43.600;1.480;2023-01-01T06:08:50;11.70;1.00
14924;DHT22;7554;43.600;1.480;2023-01-01T06:11:19;11.80;1.00
14924;DHT22;7554;43.600;1.480;2023-01-01T06:13:47;11.90;1.00
14924;DHT22;7554;43.600;1.480;2023-01-01T06:16:14;12.00;1.00
14924;DHT22;7554;43.600;1.480;2023-01-01T06:18:43;11.90;1.00
14924;DHT22;7554;43.600;1.480;2023-01-01T06:21:12;12.10;1.00
14924;DHT22;7554;43.600;1.480;2023-01-01T06:23:40;12.10;1.00
14924;DHT22;7554;43.600;1.480;2023-01-01T06:26:09;12.00;1.00
14924;DHT22;7554;43.600;1.480;2023-01-01T06:28:38;11.90;1.00
14924;DHT22;7554;43.600;1.480;2023-01-01T06:31:07;12.00;1.00
14924;DHT22;7554;43.600;1.480;2023-01-01T06:33:35;11.90;1.00
14924;DHT22;7554;43.600;1.480;2023-01-01T06:36:05;11.90;1.00
14924;DHT22;7554;43.600;1.480;2023-01-01T06:38:35;11.90;1.00
14924;DHT22;7554;43.600;1.480;2023-01-01T06:41:04;11.90;1.00
14924;DHT22;7554;43.600;1.480;2023-01-01T06:43:34;12.00;1.00
14924;DHT22;7554;43.600;1.480;2023-01-01T06:46:03;11.90;1.00
14924;DHT22;7554;43.600;1.480;2023-01-01T06:48:33;11.90;1.00
14924;DHT22;7554;43.600;1.480;2023-01-01T06:51:07;11.80;1.00
14924;DHT22;7554;43.600;1.480;2023-01-01T06:53:35;11.80;1.00
14924;DHT22;7554;43.600;1.480;2023-01-01T06:56:03;11.90;1.00
14924;DHT22;7554;43.600;1.480;2023-01-01T06:58:31;11.90;1.00
14924;DHT22;7554;43.600;1.480;2023-01-01T07:01:03;11.90;1.00
14924;DHT22;7554;43.600;1.480;2023-01-01T07:03:31;11.90;1.00
14924;DHT22;7554;43.600;1.480;2023-01-01T07:05:59;11.90;1.00
14924;DHT22;7554;43.600;1.480;2023-01-01T07:08:28;12.00;1.00
14924;DHT22;7554;43.600;1.480;2023-01-01T07:10:55;12.00;1.00
14924;DHT22;7554;43.600;1.480;2023-01-01T07:13:23;12.00;1.00
14924;DHT22;7554;43.600;1.480;2023-01-01T07:15:50;12.10;1.00
14924;DHT22;7554;43.600;1.480;2023-01-01T07:18:18;12.00;1.00
14924;DHT22;7554;43.600;1.480;2023-01-01T07:20:48;12.10;1.00
14924;DHT22;7554;43.600;1.480;2023-01-01T07:23:16;12.20;1.00
14924;DHT22;7554;43.600;1.480;2023-01-01T07:25:46;12.00;1.00
14924;DHT22;7554;43.600;1.480;2023-01-01T07:28:14;12.00;1.00
14924;DHT22;7554;43.600;1.480;2023-01-01T07:30:42;12.20;1.00
14924;DHT22;7554;43.600;1.480;2023-01-01T07:33:11;12.20;1.00
14924;DHT22;7554;43.600;1.480;2023-01-01T07:35:40;12.10;1.00
14924;DHT22;7554;43.600;1.480;2023-01-01T07:38:07;12.10;1.00
14924;DHT22;7554;43.600;1.480;2023-01-01T07:40:35;12.10;1.00
14924;DHT22;7554;43.600;1.480;2023-01-01T07:43:04;12.20;1.00
14924;DHT22;7554;43.600;1.480;2023-01-01T07:45:31;12.30;1.00
14924;DHT22;7554;43.600;1.480;2023-01-01T07:47:59;12.30;1.00
14924;DHT22;7554;43.600;1.480;2023-01-01T07:50:28;12.30;1.00
14924;DHT22;7554;43.600;1.480;2023-01-01T07:52:56;12.30;1.00
14924;DHT22;7554;43.600;1.480;2023-01-01T07:55:24;12.40;1.00
14924;DHT22;7554;43.600;1.480;2023-01-01T07:57:51;12.40;1.00
14924;DHT22;7554;43.600;1.480;2023-01-01T08:00:21;12.40;1.00
14924;DHT22;7554;43.600;1.480;2023-01-01T08:02:48;12.50;1.00
14924;DHT22;7554;43.600;1.480;2023-01-01T08:05:16;12.50;1.00
14924;DHT22;7554;43.600;1.480;2023-01-01T08:07:45;12.50;1.00
14924;DHT22;7554;43.600;1.480;2023-01-01T08:10:13;12.50;1.00
14924;DHT22;7554;43.600;1.480;2023-01-01T08:12:41;12.50;1.00
14924;DHT22;7554;43.600;1.480;2023-01-01T08:15:10;12.60;1.00
14924;DHT22;7554;43.600;1.480;2023-01-01T08:17:39;12.50;1.00
14924;DHT22;7554;43.600;1.480;2023-01-01T08:20:08;12.60;1.00
14924;DHT22;7554;43.600;1.480;2023-01-01T08:22:35;12.50;1.00
14924;DHT22;7554;43.600;1.480;2023-01-01T08:25:03;12.60;1.00
14924;DHT22;7554;43.600;1.480;2023-01-01T08:27:31;12.60;1.00
14924;DHT22;7554;43.600;1.480;2023-01-01T08:29:58;12.60;1.00
14924;DHT22;7554;43.600;1.480;2023-01-01T08:32:26;12.70;1.00
14924;DHT22;7554;43.600;1.480;2023-01-01T08:34:55;12.80;1.00
14924;DHT22;7554;43.600;1.480;2023-01-01T08:37:23;12.90;1.00
14924;DHT22;7554;43.600;1.480;2023-01-01T08:39:50;12.90;1.00
14924;DHT22;7554;43.600;1.480;2023-01-01T08:42:18;12.90;1.00
14924;DHT22;7554;43.600;1.480;2023-01-01T08:44:46;12.90;1.00
14924;DHT22;7554;43.600;1.480;2023-01-01T08:47:17;13.00;1.00
14924;DHT22;7554;43.600;1.480;2023-01-01T08:49:45;13.00;1.00
14924;DHT22;7554;43.600;1.480;2023-01-01T08:52:14;13.00;1.00
14924;DHT22;7554;43.600;1.480;2023-01-01T08:54:42;13.10;1.00
14924;DHT22;7554;43.600;1.480;2023-01-01T08:57:09;13.10;1.00
14924;DHT22;7554;43.600;1.480;2023-01-01T08:59:37;13.20;1.00
14924;DHT22;7554;43.600;1.480;2023-01-01T09:02:05;13.20;1.00
14924;DHT22;7554;43.600;1.480;2023-01-01T09:04:33;13.30;1.00
14924;DHT22;7554;43.600;1.480;2023-01-01T09:07:00;13.30;1.00
14924;DHT22;7554;43.600;1.480;2023-01-01T09:09:29;13.50;1.00
14924;DHT22;7554;43.600;1.480;2023-01-01T09:11:57;13.40;1.00
14924;DHT22;7554;43.600;1.480;2023-01-01T09:14:29;13.50;1.00
14924;DHT22;7554;43.600;1.480;2023-01-01T09:16:56;13.50;1.00
14924;DHT22;7554;43.600;1.480;2023-01-01T09:19:24;13.60;1.00
14924;DHT22;7554;43.600;1.480;2023-01-01T09:21:52;13.70;1.00
14924;DHT22;7554;43.600;1.480;2023-01-01T09:24:19;13.70;1.00
14924;DHT22;7554;43.600;1.480;2023-01-01T09:26:48;13.80;1.00
14924;DHT22;7554;43.600;1.480;2023-01-01T09:29:16;13.80;1.00
14924;DHT22;7554;43.600;1.480;2023-01-01T09:31:45;13.80;1.00
14924;DHT22;7554;43.600;1.480;2023-01-01T09:34:13;13.80;1.00
14924;DHT22;7554;43.600;1.480;2023-01-01T09:36:41;13.80;1.00
14924;DHT22;7554;43.600;1.480;2023-01-01T09:39:10;13.90;1.00
14924;DHT22;7554;43.600;1.480;2023-01-01T09:41:50;13.80;1.00
14924;DHT22;7554;43.600;1.480;2023-01-01T09:44:33;13.90;1.00
14924;DHT22;7554;43.600;1.480;2023-01-01T09:47:16;13.90;1.00
14924;DHT22;7554;43.600;1.480;2023-01-01T09:49:48;13.90;1.00
14924;DHT22;7554;43.600;1.480;2023-01-01T09:52:18;14.00;1.00
14924;DHT22;7554;43.600;1.480;2023-01-01T09:54:50;14.10;1.00
14924;DHT22;7554;43.600;1.480;2023-01-01T09:57:26;14.10;1.00
14924;DHT22;7554;43.600;1.480;2023-01-01T09:59:56;14.20;1.00
14924;DHT22;7554;43.600;1.480;2023-01-01T10:02:38;14.30;1.00
14924;DHT22;7554;43.600;1.480;2023-01-01T10:05:19;14.30;1.00
14924;DHT22;7554;43.600;1.480;2023-01-01T10:07:51;14.40;1.00
14924;DHT22;7554;43.600;1.480;2023-01-01T10:10:31;14.50;1.00
14924;DHT22;7554;43.600;1.480;2023-01-01T10:13:11;14.50;1.00
14924;DHT22;7554;43.600;1.480;2023-01-01T10:15:44;14.60;1.00
14924;DHT22;7554;43.600;1.480;2023-01-01T10:18:19;14.60;1.00
14924;DHT22;7554;43.600;1.480;2023-01-01T10:20:53;14.70;1.00
14924;DHT22;7554;43.600;1.480;2023-01-01T10:23:26;14.70;1.00
14924;DHT22;7554;43.600;1.480;2023-01-01T10:25:56;14.80;1.00
14924;DHT22;7554;43.600;1.480;2023-01-01T10:28:32;14.80;1.00
14924;DHT22;7554;43.600;1.480;2023-01-01T10:31:13;14.80;1.00
14924;DHT22;7554;43.600;1.480;2023-01-01T10:33:41;14.90;1.00
14924;DHT22;7554;43.600;1.480;2023-01-01T10:36:11;14.90;1.00
14924;DHT22;7554;43.600;1.480;2023-01-01T10:38:39;14.90;1.00
14924;DHT22;7554;43.600;1.480;2023-01-01T10:41:08;15.00;1.00
14924;DHT22;7554;43.600;1.480;2023-01-01T10:43:38;15.00;1.00
14924;DHT22;7554;43.600;1.480;2023-01-01T10:46:08;15.00;1.00
14924;DHT22;7554;43.600;1.480;2023-01-01T10:48:36;15.00;1.00
14924;DHT22;7554;43.600;1.480;2023-01-01T10:51:05;15.20;1.00
14924;DHT22;7554;43.600;1.480;2023-01-01T10:53:35;15.30;1.00
14924;DHT22;7554;43.600;1.480;2023-01-01T10:56:08;15.20;1.00
14924;DHT22;7554;43.600;1.480;2023-01-01T10:58:41;15.10;1.00
14924;DHT22;7554;43.600;1.480;2023-01-01T11:01:11;15.10;1.00
14924;DHT22;7554;43.600;1.480;2023-01-01T11:03:56;15.10;1.00
14924;DHT22;7554;43.600;1.480;2023-01-01T11:06:25;15.00;1.00
14924;DHT22;7554;43.600;1.480;2023-01-01T11:08:54;15.00;1.00
14924;DHT22;7554;43.600;1.480;2023-01-01T11:11:26;14.90;1.00
14924;DHT22;7554;43.600;1.480;2023-01-01T11:13:57;14.90;1.00
14924;DHT22;7554;43.600;1.480;2023-01-01T11:16:26;14.90;1.00
14924;DHT22;7554;43.600;1.480;2023-01-01T11:19:04;14.90;1.00
14924;DHT22;7554;43.600;1.480;2023-01-01T11:21:34;14.80;1.00
14924;DHT22;7554;43.600;1.480;2023-01-01T11:24:19;14.80;1.00
14924;DHT22;7554;43.600;1.480;2023-01-01T11:26:47;14.80;1.00
14924;DHT22;7554;43.600;1.480;2023-01-01T11:29:24;14.80;1.00
14924;DHT22;7554;43.600;1.480;2023-01-01T11:31:52;14.80;1.00
14924;DHT22;7554;43.600;1.480;2023-01-01T11:34:31;14.80;1.00
14924;DHT22;7554;43.600;1.480;2023-01-01T11:37:14;14.80;1.00
14924;DHT22;7554;43.600;1.480;2023-01-01T11:39:45;14.90;1.00
14924;DHT22;7554;43.600;1.480;2023-01-01T11:42:16;14.90;1.00
14924;DHT22;7554;43.600;1.480;2023-01-01T11:44:47;14.90;1.00
14924;DHT22;7554;43.600;1.480;2023-01-01T11:47:22;14.90;1.00
14924;DHT22;7554;43.600;1.480;2023-01-01T11:49:55;14.90;1.00
14924;DHT22;7554;43.600;1.480;2023-01-01T11:52:32;14.90;1.00
14924;DHT22;7554;43.600;1.480;2023-01-01T11:55:07;14.90;1.00
14924;DHT22;7554;43.600;1.480;2023-01-01T11:57:38;14.90;1.00
14924;DHT22;7554;43.600;1.480;2023-01-01T12:00:13;15.00;1.00
14924;DHT22;7554;43.600;1.480;2023-01-01T12:02:46;14.90;1.00
14924;DHT22;7554;43.600;1.480;2023-01-01T12:05:18;15.00;1.00
14924;DHT22;7554;43.600;1.480;2023-01-01T12:07:47;15.00;1.00
14924;DHT22;7554;43.600;1.480;2023-01-01T12:10:19;15.00;1.00
14924;DHT22;7554;43.600;1.480;2023-01-01T12:12:52;15.10;1.00
14924;DHT22;7554;43.600;1.480;2023-01-01T12:15:26;15.10;1.00
14924;DHT22;7554;43.600;1.480;2023-01-01T12:18:02;15.20;1.00
14924;DHT22;7554;43.600;1.480;2023-01-01T12:20:35;15.20;1.00
14924;DHT22;7554;43.600;1.480;2023-01-01T12:23:04;15.30;1.00
14924;DHT22;7554;43.600;1.480;2023-01-01T12:25:38;15.20;1.00
14924;DHT22;7554;43.600;1.480;2023-01-01T12:28:18;15.30;1.00
14924;DHT22;7554;43.600;1.480;2023-01-01T12:30:56;15.30;1.00
14924;DHT22;7554;43.600;1.480;2023-01-01T12:33:38;15.30;1.00
14924;DHT22;7554;43.600;1.480;2023-01-01T12:36:20;15.30;1.00
14924;DHT22;7554;43.600;1.480;2023-01-01T12:42:10;15.20;1.00
14924;DHT22;7554;43.600;1.480;2023-01-01T12:44:49;15.30;1.00
14924;DHT22;7554;43.600;1.480;2023-01-01T12:47:29;15.20;1.00
14924;DHT22;7554;43.600;1.480;2023-01-01T12:50:07;15.20;1.00
14924;DHT22;7554;43.600;1.480;2023-01-01T12:52:45;15.20;1.00
14924;DHT22;7554;43.600;1.480;2023-01-01T12:55:41;15.20;1.00
14924;DHT22;7554;43.600;1.480;2023-01-01T12:58:14;15.10;1.00
14924;DHT22;7554;43.600;1.480;2023-01-01T13:00:52;15.10;1.00
14924;DHT22;7554;43.600;1.480;2023-01-01T13:03:25;15.10;1.00
14924;DHT22;7554;43.600;1.480;2023-01-01T13:05:56;15.10;1.00
14924;DHT22;7554;43.600;1.480;2023-01-01T13:08:24;15.10;1.00
14924;DHT22;7554;43.600;1.480;2023-01-01T13:10:55;15.10;1.00
14924;DHT22;7554;43.600;1.480;2023-01-01T13:13:24;15.00;1.00
14924;DHT22;7554;43.600;1.480;2023-01-01T13:15:53;15.00;1.00
14924;DHT22;7554;43.600;1.480;2023-01-01T13:18:25;15.00;1.00
14924;DHT22;7554;43.600;1.480;2023-01-01T13:20:56;15.00;1.00
14924;DHT22;7554;43.600;1.480;2023-01-01T13:24:00;15.00;1.00
14924;DHT22;7554;43.600;1.480;2023-01-01T13:26:41;15.00;1.00
14924;DHT22;7554;43.600;1.480;2023-01-01T13:32:11;15.00;1.00
14924;DHT22;7554;43.600;1.480;2023-01-01T13:34:59;15.00;1.00
14924;DHT22;7554;43.600;1.480;2023-01-01T13:37:42;14.90;1.00
14924;DHT22;7554;43.600;1.480;2023-01-01T13:40:30;14.90;1.00
14924;DHT22;7554;43.600;1.480;2023-01-01T13:43:13;14.90;1.00
14924;DHT22;7554;43.600;1.480;2023-01-01T13:45:42;14.80;1.00
14924;DHT22;7554;43.600;1.480;2023-01-01T13:48:27;14.80;1.00
14924;DHT22;7554;43.600;1.480;2023-01-01T13:51:06;14.80;1.00
14924;DHT22;7554;43.600;1.480;2023-01-01T13:53:53;14.70;1.00
14924;DHT22;7554;43.600;1.480;2023-01-01T13:56:37;14.70;1.00
14924;DHT22;7554;43.600;1.480;2023-01-01T13:59:39;14.80;1.00
14924;DHT22;7554;43.600;1.480;2023-01-01T14:02:31;14.70;1.00
14924;DHT22;7554;43.600;1.480;2023-01-01T14:05:01;14.70;1.00
14924;DHT22;7554;43.600;1.480;2023-01-01T14:07:38;14.70;1.00
14924;DHT22;7554;43.600;1.480;2023-01-01T14:10:16;14.60;1.00
14924;DHT22;7554;43.600;1.480;2023-01-01T14:12:44;14.60;1.00
14924;DHT22;7554;43.600;1.480;2023-01-01T14:15:15;14.60;1.00
14924;DHT22;7554;43.600;1.480;2023-01-01T14:17:43;14.60;1.00
14924;DHT22;7554;43.600;1.480;2023-01-01T14:20:16;14.60;1.00
14924;DHT22;7554;43.600;1.480;2023-01-01T14:22:46;14.60;1.00
14924;DHT22;7554;43.600;1.480;2023-01-01T14:25:16;14.60;1.00
14924;DHT22;7554;43.600;1.480;2023-01-01T14:27:47;14.50;1.00
14924;DHT22;7554;43.600;1.480;2023-01-01T14:30:15;14.50;1.00
14924;DHT22;7554;43.600;1.480;2023-01-01T14:32:43;14.50;1.00
14924;DHT22;7554;43.600;1.480;2023-01-01T14:35:15;14.50;1.00
14924;DHT22;7554;43.600;1.480;2023-01-01T14:37:42;14.50;1.00
14924;DHT22;7554;43.600;1.480;2023-01-01T14:40:19;14.50;1.00
14924;DHT22;7554;43.600;1.480;2023-01-01T14:42:55;14.50;1.00
14924;DHT22;7554;43.600;1.480;2023-01-01T14:45:23;14.50;1.00
14924;DHT22;7554;43.600;1.480;2023-01-01T14:47:52;14.40;1.00
14924;DHT22;7554;43.600;1.480;2023-01-01T14:50:25;14.40;1.00
14924;DHT22;7554;43.600;1.480;2023-01-01T14:52:56;14.40;1.00
14924;DHT22;7554;43.600;1.480;2023-01-01T14:55:33;14.40;1.00
14924;DHT22;7554;43.600;1.480;2023-01-01T14:58:01;14.30;1.00
14924;DHT22;7554;43.600;1.480;2023-01-01T15:00:30;14.30;1.00
14924;DHT22;7554;43.600;1.480;2023-01-01T15:03:06;14.30;1.00
14924;DHT22;7554;43.600;1.480;2023-01-01T15:05:34;14.30;1.00
14924;DHT22;7554;43.600;1.480;2023-01-01T15:08:04;14.30;1.00
14924;DHT22;7554;43.600;1.480;2023-01-01T15:10:36;14.20;1.00
14924;DHT22;7554;43.600;1.480;2023-01-01T15:13:04;14.20;1.00
14924;DHT22;7554;43.600;1.480;2023-01-01T15:15:40;14.20;1.00
14924;DHT22;7554;43.600;1.480;2023-01-01T15:18:34;14.10;1.00
14924;DHT22;7554;43.600;1.480;2023-01-01T15:21:02;14.10;1.00
14924;DHT22;7554;43.600;1.480;2023-01-01T15:23:30;14.10;1.00
14924;DHT22;7554;43.600;1.480;2023-01-01T15:25:59;14.10;1.00
14924;DHT22;7554;43.600;1.480;2023-01-01T15:28:27;14.10;1.00
14924;DHT22;7554;43.600;1.480;2023-01-01T15:30:56;14.10;1.00
14924;DHT22;7554;43.600;1.480;2023-01-01T15:33:23;14.00;1.00
14924;DHT22;7554;43.600;1.480;2023-01-01T15:35:53;14.00;1.00
14924;DHT22;7554;43.600;1.480;2023-01-01T15:38:27;14.00;1.00
14924;DHT22;7554;43.600;1.480;2023-01-01T15:41:01;13.90;1.00
14924;DHT22;7554;43.600;1.480;2023-01-01T15:43:49;13.90;1.00
14924;DHT22;7554;43.600;1.480;2023-01-01T15:46:19;13.90;1.00
14924;DHT22;7554;43.600;1.480;2023-01-01T15:48:48;13.90;1.00
14924;DHT22;7554;43.600;1.480;2023-01-01T15:51:17;13.90;1.00
14924;DHT22;7554;43.600;1.480;2023-01-01T15:53:49;13.90;1.00
14924;DHT22;7554;43.600;1.480;2023-01-01T15:56:17;13.90;1.00
14924;DHT22;7554;43.600;1.480;2023-01-01T15:58:50;13.90;1.00
14924;DHT22;7554;43.600;1.480;2023-01-01T16:01:22;13.90;1.00
14924;DHT22;7554;43.600;1.480;2023-01-01T16:03:53;13.90;1.00
14924;DHT22;7554;43.600;1.480;2023-01-01T16:06:26;13.80;1.00
14924;DHT22;7554;43.600;1.480;2023-01-01T16:08:53;13.80;1.00
14924;DHT22;7554;43.600;1.480;2023-01-01T16:11:21;13.80;1.00
14924;DHT22;7554;43.600;1.480;2023-01-01T16:13:50;13.80;1.00
14924;DHT22;7554;43.600;1.480;2023-01-01T16:16:24;13.80;1.00
14924;DHT22;7554;43.600;1.480;2023-01-01T16:18:53;13.80;1.00
14924;DHT22;7554;43.600;1.480;2023-01-01T16:21:24;13.90;1.00
14924;DHT22;7554;43.600;1.480;2023-01-01T16:23:52;13.90;1.00
14924;DHT22;7554;43.600;1.480;2023-01-01T16:26:20;13.80;1.00
14924;DHT22;7554;43.600;1.480;2023-01-01T16:28:47;13.80;1.00
14924;DHT22;7554;43.600;1.480;2023-01-01T16:31:18;13.90;1.00
14924;DHT22;7554;43.600;1.480;2023-01-01T16:33:51;13.80;1.00
14924;DHT22;7554;43.600;1.480;2023-01-01T16:36:19;13.80;1.00